SARC/CNQ METAR and TAF weather

Enter ICAO airport designator
Station Type Date Time Source
SARC METAR 2021/04/14 19:00 UTC NOAA

SARC 141900Z 00000KT 9999 SCT025 29/19 Q1012


Station Type Date Time Source
SARC Decoded METAR 2021/04/14 19:00 UTC NOAA

Corrientes Aero., Argentina (SARC) 27-27S 058-46W 62M
Apr 14, 2021 - 03:00 PM EDT / 2021.04.14 1900 UTC
Wind: Calm:0
Visibility: greater than 7 mile(s):0
Sky conditions: partly cloudy
Temperature: 84 F (29 C)
Dew Point: 66 F (19 C)
Relative Humidity: 54%
Pressure (altimeter): 29.88 in. Hg (1012 hPa)
ob: SARC 141900Z 00000KT 9999 SCT025 29/19 Q1012
cycle: 19

Station Type Date Time Source
SARC TAF 2021/03/19 00:24 UTC NOAA

TAF TAF SARC 192300Z 2000/2024 100005T CAVOK TX30/2018Z TN22/2010Z
BECMG 2008/2009 9999 BKN025 PROB40 2013/2015 7000 SHRA BKN020 FEW040TCU
BECMG 2019/2021 5000 -TSRA BKN015 BKN040 FEW050CB

Example: see airport list